sensor_id;sensor_type;location;lat;lon;timestamp;pressure;altitude;pressure_sealevel;temperature;humidity
77881;BME280;67077;50.298;18.996;2023-02-28T00:01:59;99150.98;;;-0.32;54.78
77881;BME280;67077;50.298;18.996;2023-02-28T00:04:32;99147.35;;;-0.38;55.06
77881;BME280;67077;50.298;18.996;2023-02-28T00:07:02;99146.38;;;-0.41;55.28
77881;BME280;67077;50.298;18.996;2023-02-28T00:09:49;99144.27;;;-0.43;55.17
77881;BME280;67077;50.298;18.996;2023-02-28T00:12:19;99145.14;;;-0.45;55.43
77881;BME280;67077;50.298;18.996;2023-02-28T00:14:50;99145.15;;;-0.45;55.50
77881;BME280;67077;50.298;18.996;2023-02-28T00:17:29;99143.21;;;-0.48;55.31
77881;BME280;67077;50.298;18.996;2023-02-28T00:20:04;99142.11;;;-0.47;55.24
77881;BME280;67077;50.298;18.996;2023-02-28T00:22:42;99143.36;;;-0.47;55.66
77881;BME280;67077;50.298;18.996;2023-02-28T00:25:13;99143.81;;;-0.46;55.72
77881;BME280;67077;50.298;18.996;2023-02-28T00:27:59;99142.63;;;-0.49;55.65
77881;BME280;67077;50.298;18.996;2023-02-28T00:31:13;99146.91;;;-0.54;55.74
77881;BME280;67077;50.298;18.996;2023-02-28T00:33:49;99148.20;;;-0.59;55.86
77881;BME280;67077;50.298;18.996;2023-02-28T00:36:42;99150.86;;;-0.64;56.13
77881;BME280;67077;50.298;18.996;2023-02-28T00:39:44;99150.20;;;-0.71;56.58
77881;BME280;67077;50.298;18.996;2023-02-28T00:42:20;99149.86;;;-0.75;56.86
77881;BME280;67077;50.298;18.996;2023-02-28T00:44:51;99150.10;;;-0.79;57.42
77881;BME280;67077;50.298;18.996;2023-02-28T00:47:21;99151.10;;;-0.82;57.48
77881;BME280;67077;50.298;18.996;2023-02-28T00:49:54;99154.98;;;-0.86;57.61
77881;BME280;67077;50.298;18.996;2023-02-28T00:52:26;99156.13;;;-0.87;57.88
77881;BME280;67077;50.298;18.996;2023-02-28T01:42:23;99149.37;;;-1.09;60.77
77881;BME280;67077;50.298;18.996;2023-02-28T01:45:03;99147.01;;;-1.11;60.95
77881;BME280;67077;50.298;18.996;2023-02-28T01:47:47;99148.05;;;-1.10;61.03
77881;BME280;67077;50.298;18.996;2023-02-28T01:50:34;99147.22;;;-1.09;61.29
77881;BME280;67077;50.298;18.996;2023-02-28T02:02:30;99140.34;;;-1.26;61.92
77881;BME280;67077;50.298;18.996;2023-02-28T02:05:11;99139.64;;;-1.30;62.10
77881;BME280;67077;50.298;18.996;2023-02-28T02:08:09;99139.89;;;-1.35;62.23
77881;BME280;67077;50.298;18.996;2023-02-28T02:45:56;99137.82;;;-2.64;65.51
77881;BME280;67077;50.298;18.996;2023-02-28T02:49:29;99133.77;;;-2.78;66.11
77881;BME280;67077;50.298;18.996;2023-02-28T02:52:42;99132.73;;;-2.91;66.25
77881;BME280;67077;50.298;18.996;2023-02-28T03:05:01;99139.71;;;-3.03;67.23
77881;BME280;67077;50.298;18.996;2023-02-28T03:11:03;99138.09;;;-3.14;67.78
77881;BME280;67077;50.298;18.996;2023-02-28T03:38:30;99142.98;;;-3.52;69.08
77881;BME280;67077;50.298;18.996;2023-02-28T03:42:05;99151.89;;;-3.50;68.95
77881;BME280;67077;50.298;18.996;2023-02-28T03:44:51;99156.96;;;-3.53;69.08
77881;BME280;67077;50.298;18.996;2023-02-28T03:48:26;99160.11;;;-3.57;69.21
77881;BME280;67077;50.298;18.996;2023-02-28T03:51:18;99161.87;;;-3.63;69.52
77881;BME280;67077;50.298;18.996;2023-02-28T03:54:26;99161.65;;;-3.67;69.48
77881;BME280;67077;50.298;18.996;2023-02-28T04:03:00;99164.89;;;-3.81;69.99
77881;BME280;67077;50.298;18.996;2023-02-28T04:08:31;99161.65;;;-3.83;70.00
77881;BME280;67077;50.298;18.996;2023-02-28T04:11:22;99164.00;;;-3.76;69.83
77881;BME280;67077;50.298;18.996;2023-02-28T04:13:59;99167.09;;;-3.72;69.93
77881;BME280;67077;50.298;18.996;2023-02-28T04:25:06;99178.20;;;-3.80;70.18
77881;BME280;67077;50.298;18.996;2023-02-28T04:40:12;99192.17;;;-3.94;70.67
77881;BME280;67077;50.298;18.996;2023-02-28T04:42:41;99189.64;;;-3.88;70.64
77881;BME280;67077;50.298;18.996;2023-02-28T04:47:58;99194.01;;;-3.85;70.59
77881;BME280;67077;50.298;18.996;2023-02-28T04:50:32;99196.66;;;-3.88;70.87
77881;BME280;67077;50.298;18.996;2023-02-28T04:53:35;99200.38;;;-3.91;70.89
77881;BME280;67077;50.298;18.996;2023-02-28T04:59:52;99200.16;;;-3.95;71.09
77881;BME280;67077;50.298;18.996;2023-02-28T05:02:50;99202.94;;;-3.97;71.32
77881;BME280;67077;50.298;18.996;2023-02-28T05:08:43;99200.40;;;-3.96;71.59
77881;BME280;67077;50.298;18.996;2023-02-28T05:11:33;99198.67;;;-3.89;71.63
77881;BME280;67077;50.298;18.996;2023-02-28T05:14:14;99195.90;;;-3.84;71.37
77881;BME280;67077;50.298;18.996;2023-02-28T05:16:45;99200.44;;;-3.84;71.17
77881;BME280;67077;50.298;18.996;2023-02-28T05:19:14;99204.96;;;-3.86;71.39
77881;BME280;67077;50.298;18.996;2023-02-28T05:21:51;99205.42;;;-3.87;71.37
77881;BME280;67077;50.298;18.996;2023-02-28T05:24:23;99205.63;;;-3.90;71.40
77881;BME280;67077;50.298;18.996;2023-02-28T05:26:57;99204.79;;;-3.94;71.53
77881;BME280;67077;50.298;18.996;2023-02-28T05:29:27;99203.17;;;-3.96;71.67
77881;BME280;67077;50.298;18.996;2023-02-28T05:31:58;99208.61;;;-3.93;71.65
77881;BME280;67077;50.298;18.996;2023-02-28T05:34:35;99211.40;;;-3.87;71.51
77881;BME280;67077;50.298;18.996;2023-02-28T05:37:20;99213.82;;;-3.84;71.53
77881;BME280;67077;50.298;18.996;2023-02-28T05:41:07;99215.30;;;-3.85;71.62
77881;BME280;67077;50.298;18.996;2023-02-28T05:43:57;99221.56;;;-3.89;71.45
77881;BME280;67077;50.298;18.996;2023-02-28T05:46:42;99221.62;;;-3.93;71.47
77881;BME280;67077;50.298;18.996;2023-02-28T05:49:13;99225.41;;;-3.96;71.57
77881;BME280;67077;50.298;18.996;2023-02-28T05:51:47;99228.91;;;-3.99;71.82
77881;BME280;67077;50.298;18.996;2023-02-28T05:54:19;99228.23;;;-4.02;71.90
77881;BME280;67077;50.298;18.996;2023-02-28T05:57:02;99232.48;;;-4.00;71.92
77881;BME280;67077;50.298;18.996;2023-02-28T05:59:32;99232.29;;;-3.94;71.74
77881;BME280;67077;50.298;18.996;2023-02-28T06:02:00;99236.17;;;-3.89;71.67
77881;BME280;67077;50.298;18.996;2023-02-28T06:04:27;99240.20;;;-3.86;71.60
77881;BME280;67077;50.298;18.996;2023-02-28T06:06:54;99239.98;;;-3.85;71.86
77881;BME280;67077;50.298;18.996;2023-02-28T06:09:20;99242.28;;;-3.85;71.77
77881;BME280;67077;50.298;18.996;2023-02-28T06:11:47;99243.55;;;-3.86;71.79
77881;BME280;67077;50.298;18.996;2023-02-28T06:14:17;99244.29;;;-3.86;71.63
77881;BME280;67077;50.298;18.996;2023-02-28T06:16:44;99243.08;;;-3.87;71.58
77881;BME280;67077;50.298;18.996;2023-02-28T06:19:12;99244.26;;;-3.86;71.68
77881;BME280;67077;50.298;18.996;2023-02-28T06:21:43;99248.33;;;-3.81;71.74
77881;BME280;67077;50.298;18.996;2023-02-28T06:24:10;99254.65;;;-3.73;71.47
77881;BME280;67077;50.298;18.996;2023-02-28T06:26:37;99256.85;;;-3.69;71.49
77881;BME280;67077;50.298;18.996;2023-02-28T06:29:08;99258.83;;;-3.67;71.41
77881;BME280;67077;50.298;18.996;2023-02-28T06:34:32;99265.61;;;-3.63;71.24
77881;BME280;67077;50.298;18.996;2023-02-28T06:37:04;99268.33;;;-3.61;71.29
77881;BME280;67077;50.298;18.996;2023-02-28T06:40:12;99268.14;;;-3.58;71.20
77881;BME280;67077;50.298;18.996;2023-02-28T06:43:21;99268.34;;;-3.53;71.13
77881;BME280;67077;50.298;18.996;2023-02-28T06:55:23;99260.00;;;-3.13;70.27
77881;BME280;67077;50.298;18.996;2023-02-28T06:57:53;99262.02;;;-3.09;70.31
77881;BME280;67077;50.298;18.996;2023-02-28T07:00:25;99261.73;;;-3.05;70.12
77881;BME280;67077;50.298;18.996;2023-02-28T07:03:05;99270.77;;;-3.00;69.86
77881;BME280;67077;50.298;18.996;2023-02-28T07:05:37;99274.25;;;-2.95;70.06
77881;BME280;67077;50.298;18.996;2023-02-28T07:08:06;99275.55;;;-2.88;69.92
77881;BME280;67077;50.298;18.996;2023-02-28T07:10:36;99275.26;;;-2.76;69.77
77881;BME280;67077;50.298;18.996;2023-02-28T07:13:05;99271.08;;;-2.64;69.65
77881;BME280;67077;50.298;18.996;2023-02-28T07:15:38;99275.08;;;-2.56;69.23
77881;BME280;67077;50.298;18.996;2023-02-28T07:30:49;99278.69;;;-2.29;68.70
77881;BME280;67077;50.298;18.996;2023-02-28T07:33:30;99279.80;;;-2.23;68.33
77881;BME280;67077;50.298;18.996;2023-02-28T07:36:03;99278.38;;;-2.18;68.36
77881;BME280;67077;50.298;18.996;2023-02-28T07:38:37;99282.66;;;-2.06;67.82
77881;BME280;67077;50.298;18.996;2023-02-28T07:41:05;99281.45;;;-1.92;67.92
77881;BME280;67077;50.298;18.996;2023-02-28T07:43:32;99283.88;;;-1.82;67.02
77881;BME280;67077;50.298;18.996;2023-02-28T07:46:05;99279.00;;;-1.80;66.37
77881;BME280;67077;50.298;18.996;2023-02-28T07:48:32;99280.55;;;-1.82;66.07
77881;BME280;67077;50.298;18.996;2023-02-28T07:51:00;99280.41;;;-1.83;65.96
77881;BME280;67077;50.298;18.996;2023-02-28T07:53:29;99281.70;;;-1.84;65.31
77881;BME280;67077;50.298;18.996;2023-02-28T07:56:05;99279.06;;;-1.81;65.42
77881;BME280;67077;50.298;18.996;2023-02-28T07:58:32;99282.11;;;-1.77;65.48
77881;BME280;67077;50.298;18.996;2023-02-28T08:01:17;99283.29;;;-1.71;65.64
77881;BME280;67077;50.298;18.996;2023-02-28T08:03:46;99281.63;;;-1.65;65.55
77881;BME280;67077;50.298;18.996;2023-02-28T08:06:44;99280.41;;;-1.61;64.84
77881;BME280;67077;50.298;18.996;2023-02-28T08:09:13;99284.59;;;-1.56;64.43
77881;BME280;67077;50.298;18.996;2023-02-28T08:11:45;99281.83;;;-1.49;64.08
77881;BME280;67077;50.298;18.996;2023-02-28T08:14:12;99279.26;;;-1.38;63.44
77881;BME280;67077;50.298;18.996;2023-02-28T08:16:40;99285.39;;;-1.31;62.36
77881;BME280;67077;50.298;18.996;2023-02-28T08:19:14;99282.78;;;-1.31;61.62
77881;BME280;67077;50.298;18.996;2023-02-28T08:21:53;99286.79;;;-1.33;61.46
77881;BME280;67077;50.298;18.996;2023-02-28T08:24:47;99281.67;;;-1.35;60.93
77881;BME280;67077;50.298;18.996;2023-02-28T08:27:14;99281.09;;;-1.37;59.75
77881;BME280;67077;50.298;18.996;2023-02-28T08:29:52;99282.03;;;-1.37;59.35
77881;BME280;67077;50.298;18.996;2023-02-28T08:32:19;99278.84;;;-1.37;59.23
77881;BME280;67077;50.298;18.996;2023-02-28T08:34:47;99281.73;;;-1.36;59.61
77881;BME280;67077;50.298;18.996;2023-02-28T08:37:14;99281.09;;;-1.35;59.15
77881;BME280;67077;50.298;18.996;2023-02-28T08:42:15;99285.87;;;-1.32;57.72
77881;BME280;67077;50.298;18.996;2023-02-28T08:44:46;99289.37;;;-1.32;58.09
77881;BME280;67077;50.298;18.996;2023-02-28T08:47:22;99286.04;;;-1.28;58.03
77881;BME280;67077;50.298;18.996;2023-02-28T08:49:50;99288.65;;;-1.23;58.15
77881;BME280;67077;50.298;18.996;2023-02-28T08:52:26;99288.52;;;-1.18;57.58
77881;BME280;67077;50.298;18.996;2023-02-28T08:54:54;99287.80;;;-1.13;58.07
77881;BME280;67077;50.298;18.996;2023-02-28T08:57:27;99288.79;;;-1.03;58.36
77881;BME280;67077;50.298;18.996;2023-02-28T08:59:57;99286.45;;;-0.93;57.90
77881;BME280;67077;50.298;18.996;2023-02-28T09:02:25;99282.63;;;-0.85;57.13
77881;BME280;67077;50.298;18.996;2023-02-28T09:04:58;99284.44;;;-0.79;56.75
77881;BME280;67077;50.298;18.996;2023-02-28T09:07:37;99287.78;;;-0.76;56.32
77881;BME280;67077;50.298;18.996;2023-02-28T09:10:16;99283.35;;;-0.74;56.70
77881;BME280;67077;50.298;18.996;2023-02-28T09:12:44;99282.80;;;-0.67;56.54
77881;BME280;67077;50.298;18.996;2023-02-28T09:15:14;99283.18;;;-0.56;56.99
77881;BME280;67077;50.298;18.996;2023-02-28T09:17:41;99281.52;;;-0.44;56.91
77881;BME280;67077;50.298;18.996;2023-02-28T09:20:17;99280.75;;;-0.29;56.65
77881;BME280;67077;50.298;18.996;2023-02-28T09:22:43;99281.75;;;-0.15;56.08
77881;BME280;67077;50.298;18.996;2023-02-28T09:25:10;99277.07;;;-0.01;55.84
77881;BME280;67077;50.298;18.996;2023-02-28T09:27:39;99281.35;;;0.14;55.85
77881;BME280;67077;50.298;18.996;2023-02-28T09:30:12;99274.23;;;0.29;55.62
77881;BME280;67077;50.298;18.996;2023-02-28T09:32:42;99278.78;;;0.43;55.06
77881;BME280;67077;50.298;18.996;2023-02-28T09:35:09;99278.50;;;0.55;54.69
77881;BME280;67077;50.298;18.996;2023-02-28T09:37:43;99283.84;;;0.59;54.18
77881;BME280;67077;50.298;18.996;2023-02-28T09:40:11;99280.84;;;0.63;54.22
77881;BME280;67077;50.298;18.996;2023-02-28T09:42:39;99280.83;;;0.72;53.50
77881;BME280;67077;50.298;18.996;2023-02-28T09:45:39;99280.14;;;0.76;52.69
77881;BME280;67077;50.298;18.996;2023-02-28T09:48:26;99283.38;;;0.73;51.82
77881;BME280;67077;50.298;18.996;2023-02-28T09:52:19;99281.33;;;0.68;52.15
77881;BME280;67077;50.298;18.996;2023-02-28T10:20:49;99284.77;;;0.56;52.09
77881;BME280;67077;50.298;18.996;2023-02-28T10:23:28;99281.44;;;0.54;52.10
77881;BME280;67077;50.298;18.996;2023-02-28T10:26:11;99277.61;;;0.53;52.48
77881;BME280;67077;50.298;18.996;2023-02-28T10:28:40;99279.88;;;0.51;51.96
77881;BME280;67077;50.298;18.996;2023-02-28T10:31:13;99276.50;;;0.49;51.78
77881;BME280;67077;50.298;18.996;2023-02-28T10:33:44;99275.82;;;0.44;51.79
77881;BME280;67077;50.298;18.996;2023-02-28T10:36:20;99270.42;;;0.50;52.16
77881;BME280;67077;50.298;18.996;2023-02-28T10:38:49;99272.48;;;0.61;52.16
77881;BME280;67077;50.298;18.996;2023-02-28T10:41:30;99272.27;;;0.72;52.40
77881;BME280;67077;50.298;18.996;2023-02-28T10:44:23;99275.42;;;0.90;52.05
77881;BME280;67077;50.298;18.996;2023-02-28T10:47:21;99270.88;;;1.08;51.83
77881;BME280;67077;50.298;18.996;2023-02-28T10:49:49;99268.83;;;1.11;51.09
77881;BME280;67077;50.298;18.996;2023-02-28T10:52:52;99265.66;;;1.17;51.31
77881;BME280;67077;50.298;18.996;2023-02-28T10:55:35;99267.46;;;1.18;50.37
77881;BME280;67077;50.298;18.996;2023-02-28T10:58:24;99266.39;;;1.18;51.03
77881;BME280;67077;50.298;18.996;2023-02-28T11:00:53;99258.23;;;1.25;51.14
77881;BME280;67077;50.298;18.996;2023-02-28T11:03:33;99255.14;;;1.30;50.68
77881;BME280;67077;50.298;18.996;2023-02-28T11:06:19;99247.20;;;1.33;51.37
77881;BME280;67077;50.298;18.996;2023-02-28T11:09:00;99246.84;;;1.46;51.52
77881;BME280;67077;50.298;18.996;2023-02-28T11:12:17;99244.27;;;1.59;51.80
77881;BME280;67077;50.298;18.996;2023-02-28T11:15:27;99243.37;;;1.71;51.49
77881;BME280;67077;50.298;18.996;2023-02-28T11:18:29;99238.38;;;1.71;51.08
77881;BME280;67077;50.298;18.996;2023-02-28T11:20:59;99238.83;;;1.68;51.19
77881;BME280;67077;50.298;18.996;2023-02-28T11:23:32;99236.67;;;1.62;50.71
77881;BME280;67077;50.298;18.996;2023-02-28T11:26:03;99237.52;;;1.61;51.03
77881;BME280;67077;50.298;18.996;2023-02-28T11:28:41;99231.23;;;1.58;50.91
77881;BME280;67077;50.298;18.996;2023-02-28T11:33:44;99223.20;;;1.56;51.56
77881;BME280;67077;50.298;18.996;2023-02-28T11:38:46;99220.67;;;1.60;51.40
77881;BME280;67077;50.298;18.996;2023-02-28T11:52:56;99202.53;;;1.47;52.26
77881;BME280;67077;50.298;18.996;2023-02-28T11:58:59;99203.48;;;1.74;51.98
77881;BME280;67077;50.298;18.996;2023-02-28T12:04:42;99203.28;;;1.78;51.06
77881;BME280;67077;50.298;18.996;2023-02-28T12:13:24;99197.96;;;1.60;50.95
77881;BME280;67077;50.298;18.996;2023-02-28T12:27:42;99187.61;;;1.65;51.54
77881;BME280;67077;50.298;18.996;2023-02-28T12:30:35;99188.51;;;1.62;51.08
77881;BME280;67077;50.298;18.996;2023-02-28T12:33:13;99187.77;;;1.59;51.25
77881;BME280;67077;50.298;18.996;2023-02-28T12:38:14;99184.74;;;1.61;51.56
77881;BME280;67077;50.298;18.996;2023-02-28T12:43:32;99178.95;;;1.60;51.92
77881;BME280;67077;50.298;18.996;2023-02-28T12:46:08;99178.69;;;1.63;51.59
77881;BME280;67077;50.298;18.996;2023-02-28T12:48:43;99176.14;;;1.60;51.46
77881;BME280;67077;50.298;18.996;2023-02-28T12:51:13;99171.30;;;1.54;51.19
77881;BME280;67077;50.298;18.996;2023-02-28T12:56:53;99172.44;;;1.54;50.82
77881;BME280;67077;50.298;18.996;2023-02-28T13:02:09;99163.31;;;1.55;50.71
77881;BME280;67077;50.298;18.996;2023-02-28T13:10:16;99173.39;;;1.65;50.90
77881;BME280;67077;50.298;18.996;2023-02-28T13:12:57;99169.96;;;1.61;50.28
77881;BME280;67077;50.298;18.996;2023-02-28T13:15:36;99171.54;;;1.60;50.56
77881;BME280;67077;50.298;18.996;2023-02-28T13:18:28;99168.14;;;1.60;50.23
77881;BME280;67077;50.298;18.996;2023-02-28T13:20:58;99171.84;;;1.56;49.41
77881;BME280;67077;50.298;18.996;2023-02-28T13:27:10;99165.30;;;1.52;50.23
77881;BME280;67077;50.298;18.996;2023-02-28T13:34:37;99162.09;;;1.64;50.73
77881;BME280;67077;50.298;18.996;2023-02-28T13:40:39;99160.58;;;1.69;50.53
77881;BME280;67077;50.298;18.996;2023-02-28T13:43:08;99159.06;;;1.72;50.81
77881;BME280;67077;50.298;18.996;2023-02-28T13:50:40;99154.48;;;1.86;50.99
77881;BME280;67077;50.298;18.996;2023-02-28T14:06:23;99141.39;;;1.79;50.91
77881;BME280;67077;50.298;18.996;2023-02-28T14:09:19;99144.17;;;1.84;50.84
77881;BME280;67077;50.298;18.996;2023-02-28T14:11:50;99141.15;;;1.84;50.60
77881;BME280;67077;50.298;18.996;2023-02-28T14:17:13;99134.77;;;1.90;50.95
77881;BME280;67077;50.298;18.996;2023-02-28T14:19:44;99137.88;;;1.89;50.44
77881;BME280;67077;50.298;18.996;2023-02-28T14:22:43;99133.50;;;1.86;50.59
77881;BME280;67077;50.298;18.996;2023-02-28T14:25:32;99127.16;;;1.89;50.96
77881;BME280;67077;50.298;18.996;2023-02-28T14:31:06;99125.50;;;1.92;50.37
77881;BME280;67077;50.298;18.996;2023-02-28T14:33:48;99123.17;;;1.88;50.23
77881;BME280;67077;50.298;18.996;2023-02-28T14:36:32;99119.47;;;1.86;50.99
77881;BME280;67077;50.298;18.996;2023-02-28T14:41:56;99118.02;;;1.84;51.00
77881;BME280;67077;50.298;18.996;2023-02-28T14:44:37;99110.52;;;1.82;50.57
77881;BME280;67077;50.298;18.996;2023-02-28T14:47:31;99113.84;;;1.79;50.56
77881;BME280;67077;50.298;18.996;2023-02-28T15:01:36;99117.49;;;1.68;50.23
77881;BME280;67077;50.298;18.996;2023-02-28T15:05:33;99113.59;;;1.68;50.90
77881;BME280;67077;50.298;18.996;2023-02-28T15:08:16;99113.44;;;1.68;51.16
77881;BME280;67077;50.298;18.996;2023-02-28T15:11:05;99108.63;;;1.70;51.03
77881;BME280;67077;50.298;18.996;2023-02-28T15:13:52;99114.52;;;1.70;51.07
77881;BME280;67077;50.298;18.996;2023-02-28T15:22:30;99114.14;;;1.58;51.21
77881;BME280;67077;50.298;18.996;2023-02-28T15:25:18;99110.21;;;1.54;51.30
77881;BME280;67077;50.298;18.996;2023-02-28T15:27:54;99114.52;;;1.51;51.48
77881;BME280;67077;50.298;18.996;2023-02-28T15:30:31;99114.33;;;1.48;51.26
77881;BME280;67077;50.298;18.996;2023-02-28T15:35:32;99115.27;;;1.39;51.60
77881;BME280;67077;50.298;18.996;2023-02-28T15:40:54;99116.45;;;1.34;51.76
77881;BME280;67077;50.298;18.996;2023-02-28T15:43:32;99117.38;;;1.30;51.61
77881;BME280;67077;50.298;18.996;2023-02-28T15:46:10;99115.15;;;1.27;51.91
77881;BME280;67077;50.298;18.996;2023-02-28T15:48:43;99110.66;;;1.24;52.08
77881;BME280;67077;50.298;18.996;2023-02-28T15:54:07;99112.73;;;1.14;52.18
77881;BME280;67077;50.298;18.996;2023-02-28T15:56:42;99113.33;;;1.07;52.16
77881;BME280;67077;50.298;18.996;2023-02-28T15:59:20;99115.77;;;1.01;52.37
77881;BME280;67077;50.298;18.996;2023-02-28T16:02:02;99111.91;;;0.95;52.52
77881;BME280;67077;50.298;18.996;2023-02-28T16:04:30;99117.51;;;0.90;52.69
77881;BME280;67077;50.298;18.996;2023-02-28T16:07:05;99115.86;;;0.84;53.02
77881;BME280;67077;50.298;18.996;2023-02-28T16:09:55;99113.48;;;0.77;52.96
77881;BME280;67077;50.298;18.996;2023-02-28T16:12:29;99113.71;;;0.72;53.27
77881;BME280;67077;50.298;18.996;2023-02-28T16:15:03;99114.17;;;0.67;53.41
77881;BME280;67077;50.298;18.996;2023-02-28T16:17:38;99115.11;;;0.62;53.34
77881;BME280;67077;50.298;18.996;2023-02-28T16:20:19;99119.16;;;0.56;53.49
77881;BME280;67077;50.298;18.996;2023-02-28T16:22:46;99120.33;;;0.51;53.75
77881;BME280;67077;50.298;18.996;2023-02-28T16:25:16;99116.21;;;0.45;53.87
77881;BME280;67077;50.298;18.996;2023-02-28T16:27:48;99115.95;;;0.40;54.22
77881;BME280;67077;50.298;18.996;2023-02-28T16:30:27;99122.00;;;0.33;54.01
77881;BME280;67077;50.298;18.996;2023-02-28T16:32:55;99120.12;;;0.28;54.33
77881;BME280;67077;50.298;18.996;2023-02-28T16:35:23;99123.45;;;0.22;54.59
77881;BME280;67077;50.298;18.996;2023-02-28T16:37:51;99127.08;;;0.17;54.68
77881;BME280;67077;50.298;18.996;2023-02-28T16:40:22;99128.95;;;0.12;54.71
77881;BME280;67077;50.298;18.996;2023-02-28T16:42:51;99126.62;;;0.06;55.11
77881;BME280;67077;50.298;18.996;2023-02-28T16:45:24;99132.73;;;0.00;55.07
77881;BME280;67077;50.298;18.996;2023-02-28T16:47:54;99134.38;;;-0.05;55.57
77881;BME280;67077;50.298;18.996;2023-02-28T16:50:25;99135.23;;;-0.11;55.71
77881;BME280;67077;50.298;18.996;2023-02-28T16:52:54;99142.64;;;-0.15;56.07
77881;BME280;67077;50.298;18.996;2023-02-28T16:55:23;99139.42;;;-0.19;56.27
77881;BME280;67077;50.298;18.996;2023-02-28T16:57:56;99141.50;;;-0.24;56.44
77881;BME280;67077;50.298;18.996;2023-02-28T17:00:25;99142.48;;;-0.30;56.65
77881;BME280;67077;50.298;18.996;2023-02-28T17:02:53;99144.61;;;-0.37;56.96
77881;BME280;67077;50.298;18.996;2023-02-28T17:05:21;99147.20;;;-0.42;57.06
77881;BME280;67077;50.298;18.996;2023-02-28T17:07:49;99145.91;;;-0.48;57.28
77881;BME280;67077;50.298;18.996;2023-02-28T17:10:22;99151.05;;;-0.55;57.36
77881;BME280;67077;50.298;18.996;2023-02-28T17:12:49;99152.47;;;-0.62;57.54
77881;BME280;67077;50.298;18.996;2023-02-28T17:15:18;99158.33;;;-0.66;57.67
77881;BME280;67077;50.298;18.996;2023-02-28T17:17:47;99161.07;;;-0.72;57.74
77881;BME280;67077;50.298;18.996;2023-02-28T17:20:21;99162.16;;;-0.77;57.89
77881;BME280;67077;50.298;18.996;2023-02-28T17:22:51;99162.63;;;-0.80;58.10
77881;BME280;67077;50.298;18.996;2023-02-28T17:25:21;99162.98;;;-0.84;58.20
77881;BME280;67077;50.298;18.996;2023-02-28T17:27:52;99162.23;;;-0.91;58.47
77881;BME280;67077;50.298;18.996;2023-02-28T17:30:24;99162.02;;;-0.95;58.60
77881;BME280;67077;50.298;18.996;2023-02-28T17:32:55;99164.41;;;-0.99;58.76
77881;BME280;67077;50.298;18.996;2023-02-28T17:35:23;99163.82;;;-1.02;58.89
77881;BME280;67077;50.298;18.996;2023-02-28T17:37:50;99165.20;;;-1.06;58.86
77881;BME280;67077;50.298;18.996;2023-02-28T17:40:22;99164.69;;;-1.11;59.09
77881;BME280;67077;50.298;18.996;2023-02-28T17:42:50;99165.14;;;-1.14;59.26
77881;BME280;67077;50.298;18.996;2023-02-28T17:45:19;99161.73;;;-1.18;59.25
77881;BME280;67077;50.298;18.996;2023-02-28T17:47:48;99161.32;;;-1.20;59.51
77881;BME280;67077;50.298;18.996;2023-02-28T17:50:19;99165.31;;;-1.24;59.43
77881;BME280;67077;50.298;18.996;2023-02-28T17:52:48;99164.56;;;-1.28;59.59
77881;BME280;67077;50.298;18.996;2023-02-28T17:55:19;99167.48;;;-1.31;59.65
77881;BME280;67077;50.298;18.996;2023-02-28T17:57:47;99163.92;;;-1.35;59.88
77881;BME280;67077;50.298;18.996;2023-02-28T18:00:16;99168.16;;;-1.40;59.99
77881;BME280;67077;50.298;18.996;2023-02-28T18:02:52;99171.07;;;-1.45;60.33
77881;BME280;67077;50.298;18.996;2023-02-28T18:05:18;99165.92;;;-1.52;60.55
77881;BME280;67077;50.298;18.996;2023-02-28T18:07:45;99167.52;;;-1.57;60.63
77881;BME280;67077;50.298;18.996;2023-02-28T18:10:17;99170.39;;;-1.62;61.07
77881;BME280;67077;50.298;18.996;2023-02-28T18:12:47;99169.69;;;-1.67;61.31
77881;BME280;67077;50.298;18.996;2023-02-28T18:15:26;99170.94;;;-1.69;61.20
77881;BME280;67077;50.298;18.996;2023-02-28T18:18:05;99171.45;;;-1.71;61.56
77881;BME280;67077;50.298;18.996;2023-02-28T18:20:34;99172.81;;;-1.73;61.43
77881;BME280;67077;50.298;18.996;2023-02-28T18:23:05;99172.52;;;-1.76;61.59
77881;BME280;67077;50.298;18.996;2023-02-28T18:28:26;99169.45;;;-1.77;61.95
77881;BME280;67077;50.298;18.996;2023-02-28T18:31:19;99166.70;;;-1.76;61.96
77881;BME280;67077;50.298;18.996;2023-02-28T18:33:52;99165.02;;;-1.75;61.95
77881;BME280;67077;50.298;18.996;2023-02-28T18:36:20;99164.08;;;-1.74;62.09
77881;BME280;67077;50.298;18.996;2023-02-28T18:39:18;99163.45;;;-1.75;62.22
77881;BME280;67077;50.298;18.996;2023-02-28T18:44:41;99168.20;;;-1.79;62.39
77881;BME280;67077;50.298;18.996;2023-02-28T18:47:18;99168.59;;;-1.83;62.65
77881;BME280;67077;50.298;18.996;2023-02-28T18:49:53;99170.13;;;-1.85;62.52
77881;BME280;67077;50.298;18.996;2023-02-28T18:52:21;99163.62;;;-1.87;62.54
77881;BME280;67077;50.298;18.996;2023-02-28T18:55:06;99162.51;;;-1.89;62.66
77881;BME280;67077;50.298;18.996;2023-02-28T18:58:19;99165.23;;;-1.92;62.83
77881;BME280;67077;50.298;18.996;2023-02-28T19:00:53;99167.46;;;-1.93;63.13
77881;BME280;67077;50.298;18.996;2023-02-28T19:09:53;99160.23;;;-1.75;63.06
77881;BME280;67077;50.298;18.996;2023-02-28T19:12:19;99157.76;;;-1.72;62.97
77881;BME280;67077;50.298;18.996;2023-02-28T19:14:46;99158.41;;;-1.72;63.12
77881;BME280;67077;50.298;18.996;2023-02-28T19:17:13;99153.02;;;-1.73;63.14
77881;BME280;67077;50.298;18.996;2023-02-28T19:19:41;99150.13;;;-1.74;63.07
77881;BME280;67077;50.298;18.996;2023-02-28T19:25:03;99151.02;;;-1.79;63.50
77881;BME280;67077;50.298;18.996;2023-02-28T19:27:31;99152.46;;;-1.82;63.42
77881;BME280;67077;50.298;18.996;2023-02-28T19:30:01;99154.04;;;-1.85;63.71
77881;BME280;67077;50.298;18.996;2023-02-28T19:32:30;99159.05;;;-1.88;63.74
77881;BME280;67077;50.298;18.996;2023-02-28T19:34:57;99157.39;;;-1.91;63.90
77881;BME280;67077;50.298;18.996;2023-02-28T19:37:26;99158.70;;;-1.94;64.13
77881;BME280;67077;50.298;18.996;2023-02-28T19:39:54;99159.39;;;-1.97;64.21
77881;BME280;67077;50.298;18.996;2023-02-28T19:42:23;99160.95;;;-1.99;64.22
77881;BME280;67077;50.298;18.996;2023-02-28T19:45:00;99163.14;;;-2.02;64.47